sensor_id;sensor_type;location;lat;lon;timestamp;temperature;humidity
68977;SHT31;56029;52.568;13.588;2023-07-09T00:01:04;16.91;76.31
68977;SHT31;56029;52.568;13.588;2023-07-09T00:03:50;16.85;76.90
68977;SHT31;56029;52.568;13.588;2023-07-09T00:06:18;16.82;77.05
68977;SHT31;56029;52.568;13.588;2023-07-09T00:08:44;16.72;77.45
68977;SHT31;56029;52.568;13.588;2023-07-09T00:11:12;16.63;77.64
68977;SHT31;56029;52.568;13.588;2023-07-09T00:13:37;16.49;77.85
68977;SHT31;56029;52.568;13.588;2023-07-09T00:16:10;16.43;77.70
68977;SHT31;56029;52.568;13.588;2023-07-09T00:18:36;16.40;78.28
68977;SHT31;56029;52.568;13.588;2023-07-09T00:21:02;16.37;78.10
68977;SHT31;56029;52.568;13.588;2023-07-09T00:23:27;16.44;78.26
68977;SHT31;56029;52.568;13.588;2023-07-09T00:25:55;16.49;78.76
68977;SHT31;56029;52.568;13.588;2023-07-09T00:28:20;16.49;78.51
68977;SHT31;56029;52.568;13.588;2023-07-09T00:30:47;16.37;78.83
68977;SHT31;56029;52.568;13.588;2023-07-09T00:33:14;16.31;79.17
68977;SHT31;56029;52.568;13.588;2023-07-09T00:35:44;16.27;78.99
68977;SHT31;56029;52.568;13.588;2023-07-09T00:38:19;16.26;80.03
68977;SHT31;56029;52.568;13.588;2023-07-09T00:43:27;16.26;80.16
68977;SHT31;56029;52.568;13.588;2023-07-09T00:46:16;16.26;80.49
68977;SHT31;56029;52.568;13.588;2023-07-09T00:48:42;16.23;80.74
68977;SHT31;56029;52.568;13.588;2023-07-09T00:51:12;16.10;81.45
68977;SHT31;56029;52.568;13.588;2023-07-09T00:53:38;16.05;81.59
68977;SHT31;56029;52.568;13.588;2023-07-09T00:56:16;16.03;81.12
68977;SHT31;56029;52.568;13.588;2023-07-09T00:58:45;16.00;80.94
68977;SHT31;56029;52.568;13.588;2023-07-09T01:01:18;15.83;81.23
68977;SHT31;56029;52.568;13.588;2023-07-09T01:03:54;15.72;81.20
68977;SHT31;56029;52.568;13.588;2023-07-09T01:06:32;15.69;81.18
68977;SHT31;56029;52.568;13.588;2023-07-09T01:09:01;15.66;81.59
68977;SHT31;56029;52.568;13.588;2023-07-09T01:11:27;15.62;81.42
68977;SHT31;56029;52.568;13.588;2023-07-09T01:13:58;15.58;81.28
68977;SHT31;56029;52.568;13.588;2023-07-09T01:16:29;15.50;81.54
68977;SHT31;56029;52.568;13.588;2023-07-09T01:18:56;15.38;81.22
68977;SHT31;56029;52.568;13.588;2023-07-09T01:21:21;15.31;81.58
68977;SHT31;56029;52.568;13.588;2023-07-09T01:23:48;15.34;81.55
68977;SHT31;56029;52.568;13.588;2023-07-09T01:26:18;15.40;81.97
68977;SHT31;56029;52.568;13.588;2023-07-09T01:28:45;15.42;81.40
68977;SHT31;56029;52.568;13.588;2023-07-09T01:31:12;15.45;81.69
68977;SHT31;56029;52.568;13.588;2023-07-09T01:33:39;15.42;81.68
68977;SHT31;56029;52.568;13.588;2023-07-09T01:36:09;15.41;81.52
68977;SHT31;56029;52.568;13.588;2023-07-09T01:38:35;15.38;81.74
68977;SHT31;56029;52.568;13.588;2023-07-09T01:41:01;15.42;82.11
68977;SHT31;56029;52.568;13.588;2023-07-09T01:43:27;15.45;81.91
68977;SHT31;56029;52.568;13.588;2023-07-09T01:45:53;15.47;81.72
68977;SHT31;56029;52.568;13.588;2023-07-09T01:48:24;15.51;82.39
68977;SHT31;56029;52.568;13.588;2023-07-09T01:50:51;15.48;82.34
68977;SHT31;56029;52.568;13.588;2023-07-09T01:53:20;15.47;82.33
68977;SHT31;56029;52.568;13.588;2023-07-09T01:55:51;15.41;82.41
68977;SHT31;56029;52.568;13.588;2023-07-09T01:58:19;15.40;82.55
68977;SHT31;56029;52.568;13.588;2023-07-09T02:00:50;15.34;82.18
68977;SHT31;56029;52.568;13.588;2023-07-09T02:03:16;15.24;81.82
68977;SHT31;56029;52.568;13.588;2023-07-09T02:05:43;15.14;82.14
68977;SHT31;56029;52.568;13.588;2023-07-09T02:08:08;15.17;82.82
68977;SHT31;56029;52.568;13.588;2023-07-09T02:10:34;15.16;83.49
68977;SHT31;56029;52.568;13.588;2023-07-09T02:13:00;15.16;83.91
68977;SHT31;56029;52.568;13.588;2023-07-09T02:15:25;15.17;83.93
68977;SHT31;56029;52.568;13.588;2023-07-09T02:17:51;15.24;83.69
68977;SHT31;56029;52.568;13.588;2023-07-09T02:20:17;15.20;83.81
68977;SHT31;56029;52.568;13.588;2023-07-09T02:22:44;15.13;83.84
68977;SHT31;56029;52.568;13.588;2023-07-09T02:25:11;15.03;83.70
68977;SHT31;56029;52.568;13.588;2023-07-09T02:27:37;14.93;84.46
68977;SHT31;56029;52.568;13.588;2023-07-09T02:30:04;14.87;84.84
68977;SHT31;56029;52.568;13.588;2023-07-09T02:32:31;14.87;84.39
68977;SHT31;56029;52.568;13.588;2023-07-09T02:34:57;14.83;83.70
68977;SHT31;56029;52.568;13.588;2023-07-09T02:37:24;14.76;83.60
68977;SHT31;56029;52.568;13.588;2023-07-09T02:39:51;14.73;83.65
68977;SHT31;56029;52.568;13.588;2023-07-09T02:42:18;14.66;83.36
68977;SHT31;56029;52.568;13.588;2023-07-09T02:44:44;14.52;83.77
68977;SHT31;56029;52.568;13.588;2023-07-09T02:47:11;14.48;83.90
68977;SHT31;56029;52.568;13.588;2023-07-09T02:49:37;14.45;84.00
68977;SHT31;56029;52.568;13.588;2023-07-09T02:52:03;14.36;84.19
68977;SHT31;56029;52.568;13.588;2023-07-09T02:54:29;14.31;84.19
68977;SHT31;56029;52.568;13.588;2023-07-09T02:56:55;14.28;84.43
68977;SHT31;56029;52.568;13.588;2023-07-09T02:59:21;14.22;84.32
68977;SHT31;56029;52.568;13.588;2023-07-09T03:01:47;14.24;84.62
68977;SHT31;56029;52.568;13.588;2023-07-09T03:04:16;14.28;84.41
68977;SHT31;56029;52.568;13.588;2023-07-09T03:06:41;14.34;84.48
68977;SHT31;56029;52.568;13.588;2023-07-09T03:09:07;14.41;84.47
68977;SHT31;56029;52.568;13.588;2023-07-09T03:11:34;14.45;84.41
68977;SHT31;56029;52.568;13.588;2023-07-09T03:14:01;14.52;84.27
68977;SHT31;56029;52.568;13.588;2023-07-09T03:16:28;14.56;84.15
68977;SHT31;56029;52.568;13.588;2023-07-09T03:18:54;14.59;84.23
68977;SHT31;56029;52.568;13.588;2023-07-09T03:21:21;14.61;84.49
68977;SHT31;56029;52.568;13.588;2023-07-09T03:23:47;14.69;84.02
68977;SHT31;56029;52.568;13.588;2023-07-09T03:26:12;14.66;84.03
68977;SHT31;56029;52.568;13.588;2023-07-09T03:28:38;14.68;84.54
68977;SHT31;56029;52.568;13.588;2023-07-09T03:31:04;14.69;84.36
68977;SHT31;56029;52.568;13.588;2023-07-09T03:33:30;14.93;83.76
68977;SHT31;56029;52.568;13.588;2023-07-09T03:35:55;15.31;82.92
68977;SHT31;56029;52.568;13.588;2023-07-09T03:38:21;15.66;81.50
68977;SHT31;56029;52.568;13.588;2023-07-09T03:40:50;15.82;80.84
68977;SHT31;56029;52.568;13.588;2023-07-09T03:43:17;15.73;80.81
68977;SHT31;56029;52.568;13.588;2023-07-09T03:45:43;15.63;81.54
68977;SHT31;56029;52.568;13.588;2023-07-09T03:48:09;15.73;81.42
68977;SHT31;56029;52.568;13.588;2023-07-09T03:50:35;15.92;81.28
68977;SHT31;56029;52.568;13.588;2023-07-09T03:53:01;16.49;79.86
68977;SHT31;56029;52.568;13.588;2023-07-09T03:55:26;16.95;78.33
68977;SHT31;56029;52.568;13.588;2023-07-09T03:57:54;16.99;77.44
68977;SHT31;56029;52.568;13.588;2023-07-09T04:00:19;17.22;77.30
68977;SHT31;56029;52.568;13.588;2023-07-09T04:02:45;17.54;76.02
68977;SHT31;56029;52.568;13.588;2023-07-09T04:05:11;18.04;74.70
68977;SHT31;56029;52.568;13.588;2023-07-09T04:07:37;18.38;73.75
68977;SHT31;56029;52.568;13.588;2023-07-09T04:10:03;18.80;72.85
68977;SHT31;56029;52.568;13.588;2023-07-09T04:12:29;19.11;72.03
68977;SHT31;56029;52.568;13.588;2023-07-09T04:14:55;19.55;71.01
68977;SHT31;56029;52.568;13.588;2023-07-09T04:17:21;19.92;70.56
68977;SHT31;56029;52.568;13.588;2023-07-09T04:19:51;20.29;69.46
68977;SHT31;56029;52.568;13.588;2023-07-09T04:22:17;20.55;68.78
68977;SHT31;56029;52.568;13.588;2023-07-09T04:24:43;20.45;68.36
68977;SHT31;56029;52.568;13.588;2023-07-09T04:27:08;20.38;68.87
68977;SHT31;56029;52.568;13.588;2023-07-09T04:29:34;20.47;68.75
68977;SHT31;56029;52.568;13.588;2023-07-09T04:32:02;20.52;68.73
68977;SHT31;56029;52.568;13.588;2023-07-09T04:34:28;20.30;69.60
68977;SHT31;56029;52.568;13.588;2023-07-09T04:36:54;20.03;70.58
68977;SHT31;56029;52.568;13.588;2023-07-09T04:39:19;19.72;71.13
68977;SHT31;56029;52.568;13.588;2023-07-09T04:41:46;19.69;70.62
68977;SHT31;56029;52.568;13.588;2023-07-09T04:44:12;20.43;68.87
68977;SHT31;56029;52.568;13.588;2023-07-09T04:46:37;21.13;66.80
68977;SHT31;56029;52.568;13.588;2023-07-09T04:49:03;21.80;64.77
68977;SHT31;56029;52.568;13.588;2023-07-09T04:51:29;22.42;64.23
68977;SHT31;56029;52.568;13.588;2023-07-09T04:53:54;22.64;61.43
68977;SHT31;56029;52.568;13.588;2023-07-09T04:56:20;23.00;60.63
68977;SHT31;56029;52.568;13.588;2023-07-09T04:58:45;22.97;60.06
68977;SHT31;56029;52.568;13.588;2023-07-09T05:01:11;22.48;60.65
68977;SHT31;56029;52.568;13.588;2023-07-09T05:03:36;22.70;60.28
68977;SHT31;56029;52.568;13.588;2023-07-09T05:06:03;23.12;60.42
68977;SHT31;56029;52.568;13.588;2023-07-09T05:08:28;23.69;59.58
68977;SHT31;56029;52.568;13.588;2023-07-09T05:10:56;23.82;58.88
68977;SHT31;56029;52.568;13.588;2023-07-09T05:13:22;24.19;58.50
68977;SHT31;56029;52.568;13.588;2023-07-09T05:15:49;23.95;59.36
68977;SHT31;56029;52.568;13.588;2023-07-09T05:18:15;23.57;60.68
68977;SHT31;56029;52.568;13.588;2023-07-09T05:20:41;22.79;61.95
68977;SHT31;56029;52.568;13.588;2023-07-09T05:23:08;22.29;63.64
68977;SHT31;56029;52.568;13.588;2023-07-09T05:25:34;22.57;64.25
68977;SHT31;56029;52.568;13.588;2023-07-09T05:27:59;22.62;64.01
68977;SHT31;56029;52.568;13.588;2023-07-09T05:30:25;22.86;63.71
68977;SHT31;56029;52.568;13.588;2023-07-09T05:32:51;22.59;64.14
68977;SHT31;56029;52.568;13.588;2023-07-09T05:35:19;22.62;65.07
68977;SHT31;56029;52.568;13.588;2023-07-09T05:37:44;22.48;64.62
68977;SHT31;56029;52.568;13.588;2023-07-09T05:40:10;22.32;63.93
68977;SHT31;56029;52.568;13.588;2023-07-09T05:42:35;21.80;64.47
68977;SHT31;56029;52.568;13.588;2023-07-09T05:45:01;21.87;64.29
68977;SHT31;56029;52.568;13.588;2023-07-09T05:47:27;21.83;63.82
68977;SHT31;56029;52.568;13.588;2023-07-09T05:49:53;21.63;64.78
68977;SHT31;56029;52.568;13.588;2023-07-09T05:52:20;21.71;65.37
68977;SHT31;56029;52.568;13.588;2023-07-09T05:54:49;21.66;65.54
68977;SHT31;56029;52.568;13.588;2023-07-09T05:57:15;21.71;65.23
68977;SHT31;56029;52.568;13.588;2023-07-09T05:59:41;21.70;65.11
68977;SHT31;56029;52.568;13.588;2023-07-09T06:02:19;21.73;65.02
68977;SHT31;56029;52.568;13.588;2023-07-09T06:04:45;21.75;64.59
68977;SHT31;56029;52.568;13.588;2023-07-09T06:07:11;21.85;64.61
68977;SHT31;56029;52.568;13.588;2023-07-09T06:09:37;21.93;64.37
68977;SHT31;56029;52.568;13.588;2023-07-09T06:12:03;21.97;63.97
68977;SHT31;56029;52.568;13.588;2023-07-09T06:14:31;21.98;64.22
68977;SHT31;56029;52.568;13.588;2023-07-09T06:16:57;22.04;64.77
68977;SHT31;56029;52.568;13.588;2023-07-09T06:19:23;22.19;64.63
68977;SHT31;56029;52.568;13.588;2023-07-09T06:21:49;22.24;63.47
68977;SHT31;56029;52.568;13.588;2023-07-09T06:24:15;22.41;64.04
68977;SHT31;56029;52.568;13.588;2023-07-09T06:26:40;22.48;63.36
68977;SHT31;56029;52.568;13.588;2023-07-09T06:29:06;22.59;63.35
68977;SHT31;56029;52.568;13.588;2023-07-09T06:31:31;22.64;63.93
68977;SHT31;56029;52.568;13.588;2023-07-09T06:33:57;22.73;61.47
68977;SHT31;56029;52.568;13.588;2023-07-09T06:36:23;22.89;63.23
68977;SHT31;56029;52.568;13.588;2023-07-09T06:38:48;22.97;62.63
68977;SHT31;56029;52.568;13.588;2023-07-09T06:41:14;23.00;62.09
68977;SHT31;56029;52.568;13.588;2023-07-09T06:43:40;23.07;62.79
68977;SHT31;56029;52.568;13.588;2023-07-09T06:46:10;23.18;62.74
68977;SHT31;56029;52.568;13.588;2023-07-09T06:48:37;23.25;61.98
68977;SHT31;56029;52.568;13.588;2023-07-09T06:51:03;23.32;61.77
68977;SHT31;56029;52.568;13.588;2023-07-09T06:53:29;23.41;62.27
68977;SHT31;56029;52.568;13.588;2023-07-09T06:55:55;23.45;61.27
68977;SHT31;56029;52.568;13.588;2023-07-09T06:58:28;23.49;61.75
68977;SHT31;56029;52.568;13.588;2023-07-09T07:00:54;23.59;61.74
68977;SHT31;56029;52.568;13.588;2023-07-09T07:03:21;23.66;61.68
68977;SHT31;56029;52.568;13.588;2023-07-09T07:05:49;23.82;60.48
68977;SHT31;56029;52.568;13.588;2023-07-09T07:08:18;23.93;62.03
68977;SHT31;56029;52.568;13.588;2023-07-09T07:10:45;24.00;60.88
68977;SHT31;56029;52.568;13.588;2023-07-09T07:13:12;24.19;60.39
68977;SHT31;56029;52.568;13.588;2023-07-09T07:15:38;24.21;58.72
68977;SHT31;56029;52.568;13.588;2023-07-09T07:18:04;24.28;59.01
68977;SHT31;56029;52.568;13.588;2023-07-09T07:20:30;24.43;60.30
68977;SHT31;56029;52.568;13.588;2023-07-09T07:22:56;24.51;58.44
68977;SHT31;56029;52.568;13.588;2023-07-09T07:25:23;24.54;56.25
68977;SHT31;56029;52.568;13.588;2023-07-09T07:27:49;24.58;57.42
68977;SHT31;56029;52.568;13.588;2023-07-09T07:30:15;24.71;57.50
68977;SHT31;56029;52.568;13.588;2023-07-09T07:32:46;24.92;56.88
68977;SHT31;56029;52.568;13.588;2023-07-09T07:35:13;24.98;56.57
68977;SHT31;56029;52.568;13.588;2023-07-09T07:37:41;25.06;57.91
68977;SHT31;56029;52.568;13.588;2023-07-09T07:40:07;25.22;56.32
68977;SHT31;56029;52.568;13.588;2023-07-09T07:42:33;25.29;55.47
68977;SHT31;56029;52.568;13.588;2023-07-09T07:44:59;25.30;58.76
68977;SHT31;56029;52.568;13.588;2023-07-09T07:47:25;25.36;55.15
68977;SHT31;56029;52.568;13.588;2023-07-09T07:49:52;25.44;53.84
68977;SHT31;56029;52.568;13.588;2023-07-09T07:52:18;25.44;54.49
68977;SHT31;56029;52.568;13.588;2023-07-09T07:54:43;25.49;55.80
68977;SHT31;56029;52.568;13.588;2023-07-09T07:57:09;25.59;56.19
68977;SHT31;56029;52.568;13.588;2023-07-09T07:59:36;25.70;54.65
68977;SHT31;56029;52.568;13.588;2023-07-09T08:02:04;25.71;54.55
68977;SHT31;56029;52.568;13.588;2023-07-09T08:04:29;25.81;54.32
68977;SHT31;56029;52.568;13.588;2023-07-09T08:06:55;25.83;54.60
68977;SHT31;56029;52.568;13.588;2023-07-09T08:09:20;25.97;54.71
68977;SHT31;56029;52.568;13.588;2023-07-09T08:11:46;26.08;53.90
68977;SHT31;56029;52.568;13.588;2023-07-09T08:14:12;26.11;54.77
68977;SHT31;56029;52.568;13.588;2023-07-09T08:16:38;26.15;53.90
68977;SHT31;56029;52.568;13.588;2023-07-09T08:19:04;26.15;53.74
68977;SHT31;56029;52.568;13.588;2023-07-09T08:21:29;26.24;54.01
68977;SHT31;56029;52.568;13.588;2023-07-09T08:23:55;26.45;52.76
68977;SHT31;56029;52.568;13.588;2023-07-09T08:26:20;26.32;52.22
68977;SHT31;56029;52.568;13.588;2023-07-09T08:28:46;26.38;49.93
68977;SHT31;56029;52.568;13.588;2023-07-09T08:31:12;26.53;51.17
68977;SHT31;56029;52.568;13.588;2023-07-09T08:33:37;26.66;52.89
68977;SHT31;56029;52.568;13.588;2023-07-09T08:36:03;26.80;54.15
68977;SHT31;56029;52.568;13.588;2023-07-09T08:38:29;26.93;52.42
68977;SHT31;56029;52.568;13.588;2023-07-09T08:41:02;26.96;52.13
68977;SHT31;56029;52.568;13.588;2023-07-09T08:44:09;26.93;51.88
68977;SHT31;56029;52.568;13.588;2023-07-09T08:47:00;26.91;52.61
68977;SHT31;56029;52.568;13.588;2023-07-09T08:49:35;26.96;53.27
68977;SHT31;56029;52.568;13.588;2023-07-09T08:52:10;26.97;50.48
68977;SHT31;56029;52.568;13.588;2023-07-09T08:54:38;27.00;49.65
68977;SHT31;56029;52.568;13.588;2023-07-09T08:57:17;27.04;50.02
68977;SHT31;56029;52.568;13.588;2023-07-09T08:59:45;27.12;50.45
68977;SHT31;56029;52.568;13.588;2023-07-09T09:02:20;27.07;48.03
68977;SHT31;56029;52.568;13.588;2023-07-09T09:04:47;27.26;49.72
68977;SHT31;56029;52.568;13.588;2023-07-09T09:07:31;27.30;50.81
68977;SHT31;56029;52.568;13.588;2023-07-09T09:10:02;27.39;49.26
68977;SHT31;56029;52.568;13.588;2023-07-09T09:12:35;27.48;50.47
68977;SHT31;56029;52.568;13.588;2023-07-09T09:15:08;27.57;48.97
68977;SHT31;56029;52.568;13.588;2023-07-09T09:17:38;27.62;48.71
68977;SHT31;56029;52.568;13.588;2023-07-09T09:20:10;27.69;48.86
68977;SHT31;56029;52.568;13.588;2023-07-09T09:22:44;27.75;48.67
68977;SHT31;56029;52.568;13.588;2023-07-09T09:27:39;27.82;48.43
68977;SHT31;56029;52.568;13.588;2023-07-09T09:30:11;27.66;46.96
68977;SHT31;56029;52.568;13.588;2023-07-09T09:32:47;27.68;47.40
68977;SHT31;56029;52.568;13.588;2023-07-09T09:35:16;27.72;47.80
68977;SHT31;56029;52.568;13.588;2023-07-09T09:37:51;27.81;48.24
68977;SHT31;56029;52.568;13.588;2023-07-09T09:40:18;27.99;47.38
68977;SHT31;56029;52.568;13.588;2023-07-09T09:42:48;27.85;48.57
68977;SHT31;56029;52.568;13.588;2023-07-09T09:45:16;27.88;48.37
68977;SHT31;56029;52.568;13.588;2023-07-09T09:47:44;27.84;46.67
68977;SHT31;56029;52.568;13.588;2023-07-09T09:50:21;27.81;48.34
68977;SHT31;56029;52.568;13.588;2023-07-09T09:52:48;27.97;48.99
68977;SHT31;56029;52.568;13.588;2023-07-09T09:55:19;28.07;48.77
68977;SHT31;56029;52.568;13.588;2023-07-09T09:57:50;28.23;49.43
68977;SHT31;56029;52.568;13.588;2023-07-09T10:00:18;28.26;49.61
68977;SHT31;56029;52.568;13.588;2023-07-09T10:02:45;28.24;50.39
68977;SHT31;56029;52.568;13.588;2023-07-09T10:05:14;28.28;48.71
68977;SHT31;56029;52.568;13.588;2023-07-09T10:07:47;28.57;48.48
68977;SHT31;56029;52.568;13.588;2023-07-09T10:10:17;28.55;47.83
68977;SHT31;56029;52.568;13.588;2023-07-09T10:12:50;28.68;48.21
68977;SHT31;56029;52.568;13.588;2023-07-09T10:18:03;28.67;45.53
68977;SHT31;56029;52.568;13.588;2023-07-09T10:20:47;28.48;45.07
68977;SHT31;56029;52.568;13.588;2023-07-09T10:26:25;28.72;45.75
68977;SHT31;56029;52.568;13.588;2023-07-09T10:29:14;28.72;44.99
68977;SHT31;56029;52.568;13.588;2023-07-09T10:34:57;28.98;46.07
68977;SHT31;56029;52.568;13.588;2023-07-09T10:40:03;28.74;45.28
68977;SHT31;56029;52.568;13.588;2023-07-09T10:42:37;28.67;44.91
68977;SHT31;56029;52.568;13.588;2023-07-09T10:45:18;28.78;44.82
68977;SHT31;56029;52.568;13.588;2023-07-09T10:47:53;28.79;45.14
68977;SHT31;56029;52.568;13.588;2023-07-09T10:50:41;28.91;44.46
68977;SHT31;56029;52.568;13.588;2023-07-09T10:53:13;29.02;46.64
68977;SHT31;56029;52.568;13.588;2023-07-09T10:55:47;29.09;44.91
68977;SHT31;56029;52.568;13.588;2023-07-09T10:58:33;29.11;45.06
68977;SHT31;56029;52.568;13.588;2023-07-09T11:01:01;28.94;44.36
68977;SHT31;56029;52.568;13.588;2023-07-09T11:03:40;29.12;46.78
68977;SHT31;56029;52.568;13.588;2023-07-09T11:06:25;29.32;46.10
68977;SHT31;56029;52.568;13.588;2023-07-09T11:08:55;29.45;45.33
68977;SHT31;56029;52.568;13.588;2023-07-09T11:11:28;29.40;44.66
68977;SHT31;56029;52.568;13.588;2023-07-09T11:13:59;29.45;45.54
68977;SHT31;56029;52.568;13.588;2023-07-09T11:16:31;29.45;45.38
68977;SHT31;56029;52.568;13.588;2023-07-09T11:19:02;29.54;46.80
68977;SHT31;56029;52.568;13.588;2023-07-09T11:21:29;29.59;46.70
68977;SHT31;56029;52.568;13.588;2023-07-09T11:23:57;29.60;47.74
68977;SHT31;56029;52.568;13.588;2023-07-09T11:26:29;29.74;46.78
68977;SHT31;56029;52.568;13.588;2023-07-09T11:29:14;29.74;44.72
68977;SHT31;56029;52.568;13.588;2023-07-09T11:31:42;29.64;43.92
68977;SHT31;56029;52.568;13.588;2023-07-09T11:34:16;29.67;43.83
68977;SHT31;56029;52.568;13.588;2023-07-09T11:39:22;29.63;42.62
68977;SHT31;56029;52.568;13.588;2023-07-09T11:41:52;29.57;42.94
68977;SHT31;56029;52.568;13.588;2023-07-09T11:44:23;29.76;43.68
68977;SHT31;56029;52.568;13.588;2023-07-09T11:46:50;29.82;41.92
68977;SHT31;56029;52.568;13.588;2023-07-09T11:49:18;29.82;42.33
68977;SHT31;56029;52.568;13.588;2023-07-09T11:51:49;29.71;42.14
68977;SHT31;56029;52.568;13.588;2023-07-09T11:54:18;29.69;43.03
68977;SHT31;56029;52.568;13.588;2023-07-09T11:56:53;29.77;44.58
68977;SHT31;56029;52.568;13.588;2023-07-09T11:59:19;29.92;43.94
68977;SHT31;56029;52.568;13.588;2023-07-09T12:01:46;30.08;44.44
68977;SHT31;56029;52.568;13.588;2023-07-09T12:04:18;30.11;42.70
68977;SHT31;56029;52.568;13.588;2023-07-09T12:06:45;29.94;42.76
68977;SHT31;56029;52.568;13.588;2023-07-09T12:09:20;29.92;41.80
68977;SHT31;56029;52.568;13.588;2023-07-09T12:11:48;29.94;41.47
68977;SHT31;56029;52.568;13.588;2023-07-09T12:14:19;29.96;42.44
68977;SHT31;56029;52.568;13.588;2023-07-09T12:16:47;29.90;40.70
68977;SHT31;56029;52.568;13.588;2023-07-09T12:19:16;30.07;41.91
68977;SHT31;56029;52.568;13.588;2023-07-09T12:21:45;29.84;39.51
68977;SHT31;56029;52.568;13.588;2023-07-09T12:24:21;29.98;40.92
68977;SHT31;56029;52.568;13.588;2023-07-09T12:26:49;30.02;41.05
68977;SHT31;56029;52.568;13.588;2023-07-09T12:29:15;30.15;42.77
68977;SHT31;56029;52.568;13.588;2023-07-09T12:31:40;30.07;39.51
68977;SHT31;56029;52.568;13.588;2023-07-09T12:34:12;30.08;41.17
68977;SHT31;56029;52.568;13.588;2023-07-09T12:36:41;30.25;41.38
68977;SHT31;56029;52.568;13.588;2023-07-09T12:39:10;30.19;39.91
68977;SHT31;56029;52.568;13.588;2023-07-09T12:41:40;30.31;40.22
68977;SHT31;56029;52.568;13.588;2023-07-09T12:44:15;30.40;40.66
68977;SHT31;56029;52.568;13.588;2023-07-09T12:46:42;30.33;39.95
68977;SHT31;56029;52.568;13.588;2023-07-09T12:49:07;30.32;40.71
68977;SHT31;56029;52.568;13.588;2023-07-09T12:51:36;30.31;39.52
68977;SHT31;56029;52.568;13.588;2023-07-09T12:54:11;30.35;40.50
68977;SHT31;56029;52.568;13.588;2023-07-09T12:56:38;30.49;40.20
68977;SHT31;56029;52.568;13.588;2023-07-09T12:59:16;30.45;40.81
68977;SHT31;56029;52.568;13.588;2023-07-09T13:01:48;30.40;39.94
68977;SHT31;56029;52.568;13.588;2023-07-09T13:04:14;30.36;41.35
68977;SHT31;56029;52.568;13.588;2023-07-09T13:06:42;30.27;39.94
68977;SHT31;56029;52.568;13.588;2023-07-09T13:09:18;30.32;40.18
68977;SHT31;56029;52.568;13.588;2023-07-09T13:11:44;30.21;39.96
68977;SHT31;56029;52.568;13.588;2023-07-09T13:14:18;30.32;40.86
68977;SHT31;56029;52.568;13.588;2023-07-09T13:16:44;30.32;39.73
68977;SHT31;56029;52.568;13.588;2023-07-09T13:19:09;30.36;40.78
68977;SHT31;56029;52.568;13.588;2023-07-09T13:21:36;30.51;39.97
68977;SHT31;56029;52.568;13.588;2023-07-09T13:24:20;30.63;40.13
68977;SHT31;56029;52.568;13.588;2023-07-09T13:26:47;30.70;40.57
68977;SHT31;56029;52.568;13.588;2023-07-09T13:29:14;30.35;39.74
68977;SHT31;56029;52.568;13.588;2023-07-09T13:31:41;30.52;42.14
68977;SHT31;56029;52.568;13.588;2023-07-09T13:34:23;30.60;39.56
68977;SHT31;56029;52.568;13.588;2023-07-09T13:36:50;30.69;40.13
68977;SHT31;56029;52.568;13.588;2023-07-09T13:39:16;30.67;39.98
68977;SHT31;56029;52.568;13.588;2023-07-09T13:41:47;30.42;39.55
68977;SHT31;56029;52.568;13.588;2023-07-09T13:44:23;30.58;40.25
68977;SHT31;56029;52.568;13.588;2023-07-09T13:46:51;30.73;40.07
68977;SHT31;56029;52.568;13.588;2023-07-09T13:49:21;30.84;40.99
68977;SHT31;56029;52.568;13.588;2023-07-09T13:51:51;30.88;40.83
68977;SHT31;56029;52.568;13.588;2023-07-09T13:54:25;30.75;40.02
68977;SHT31;56029;52.568;13.588;2023-07-09T13:56:52;30.82;40.75
68977;SHT31;56029;52.568;13.588;2023-07-09T13:59:23;30.80;40.67
68977;SHT31;56029;52.568;13.588;2023-07-09T14:01:51;30.67;38.80
68977;SHT31;56029;52.568;13.588;2023-07-09T14:04:18;30.56;38.80
68977;SHT31;56029;52.568;13.588;2023-07-09T14:06:44;30.59;39.23
68977;SHT31;56029;52.568;13.588;2023-07-09T14:09:14;30.56;39.89
68977;SHT31;56029;52.568;13.588;2023-07-09T14:11:51;30.72;39.65
68977;SHT31;56029;52.568;13.588;2023-07-09T14:14:27;30.86;39.53
68977;SHT31;56029;52.568;13.588;2023-07-09T14:16:56;30.97;40.41
68977;SHT31;56029;52.568;13.588;2023-07-09T14:19:22;31.11;39.09
68977;SHT31;56029;52.568;13.588;2023-07-09T14:21:50;31.10;38.13
68977;SHT31;56029;52.568;13.588;2023-07-09T14:24:22;31.00;38.57
68977;SHT31;56029;52.568;13.588;2023-07-09T14:26:50;31.04;42.05
68977;SHT31;56029;52.568;13.588;2023-07-09T14:29:16;31.04;39.44
68977;SHT31;56029;52.568;13.588;2023-07-09T14:31:42;31.16;38.69
68977;SHT31;56029;52.568;13.588;2023-07-09T14:34:40;31.25;39.43
68977;SHT31;56029;52.568;13.588;2023-07-09T14:37:07;31.30;39.98
68977;SHT31;56029;52.568;13.588;2023-07-09T14:39:33;31.37;39.97
68977;SHT31;56029;52.568;13.588;2023-07-09T14:41:58;31.48;43.04
68977;SHT31;56029;52.568;13.588;2023-07-09T14:44:30;31.54;39.90
68977;SHT31;56029;52.568;13.588;2023-07-09T14:46:58;31.61;42.51
68977;SHT31;56029;52.568;13.588;2023-07-09T14:49:24;31.57;40.95
68977;SHT31;56029;52.568;13.588;2023-07-09T14:51:51;31.76;40.99
68977;SHT31;56029;52.568;13.588;2023-07-09T14:54:28;31.74;43.10
68977;SHT31;56029;52.568;13.588;2023-07-09T14:56:56;31.88;40.57
68977;SHT31;56029;52.568;13.588;2023-07-09T14:59:22;31.90;43.39
68977;SHT31;56029;52.568;13.588;2023-07-09T15:01:48;31.89;40.53
68977;SHT31;56029;52.568;13.588;2023-07-09T15:04:31;31.95;41.14
68977;SHT31;56029;52.568;13.588;2023-07-09T15:06:58;31.90;39.88
68977;SHT31;56029;52.568;13.588;2023-07-09T15:09:26;32.02;42.68
68977;SHT31;56029;52.568;13.588;2023-07-09T15:11:55;31.97;38.83
68977;SHT31;56029;52.568;13.588;2023-07-09T15:14:21;31.99;38.22
68977;SHT31;56029;52.568;13.588;2023-07-09T15:16:47;32.09;39.19
68977;SHT31;56029;52.568;13.588;2023-07-09T15:19:19;32.08;37.96
68977;SHT31;56029;52.568;13.588;2023-07-09T15:21:46;31.90;39.35
68977;SHT31;56029;52.568;13.588;2023-07-09T15:24:32;31.59;38.10
68977;SHT31;56029;52.568;13.588;2023-07-09T15:26:59;31.58;38.63
68977;SHT31;56029;52.568;13.588;2023-07-09T15:29:27;31.57;37.96
68977;SHT31;56029;52.568;13.588;2023-07-09T15:31:54;31.46;39.11
68977;SHT31;56029;52.568;13.588;2023-07-09T15:34:20;31.44;39.19
68977;SHT31;56029;52.568;13.588;2023-07-09T15:36:50;31.58;39.31
68977;SHT31;56029;52.568;13.588;2023-07-09T15:39:17;31.68;38.94
68977;SHT31;56029;52.568;13.588;2023-07-09T15:41:43;31.95;40.00
68977;SHT31;56029;52.568;13.588;2023-07-09T15:44:14;32.12;38.95